createdAt,value
2023-04-17T00:00:32.911Z,100.00
2023-04-17T00:03:01.540Z,100.00
2023-04-17T00:05:31.787Z,100.00
2023-04-17T00:08:00.237Z,100.00
2023-04-17T00:10:27.767Z,100.00
2023-04-17T00:12:55.255Z,100.00
2023-04-17T00:15:24.157Z,100.00
2023-04-17T00:17:51.656Z,100.00
2023-04-17T00:20:19.185Z,100.00
2023-04-17T00:22:46.655Z,100.00
2023-04-17T00:25:14.995Z,100.00
2023-04-17T00:27:43.033Z,100.00
2023-04-17T00:30:11.242Z,100.00
2023-04-17T00:32:40.065Z,100.00
2023-04-17T00:35:08.396Z,100.00
2023-04-17T00:37:36.277Z,100.00
2023-04-17T00:40:04.117Z,100.00
2023-04-17T00:42:31.582Z,100.00
2023-04-17T00:44:59.073Z,100.00
2023-04-17T00:47:26.854Z,100.00
2023-04-17T00:49:55.688Z,100.00
2023-04-17T00:52:29.588Z,100.00
2023-04-17T00:54:58.644Z,100.00
2023-04-17T00:57:26.414Z,100.00
2023-04-17T00:59:55.344Z,100.00
2023-04-17T01:02:23.025Z,100.00
2023-04-17T01:04:50.542Z,100.00
2023-04-17T01:07:19.363Z,100.00
2023-04-17T01:09:46.858Z,100.00
2023-04-17T01:12:18.802Z,100.00
2023-04-17T01:14:46.344Z,100.00
2023-04-17T01:17:15.352Z,100.00
2023-04-17T01:19:42.989Z,100.00
2023-04-17T01:22:10.459Z,100.00
2023-04-17T01:24:39.680Z,100.00
2023-04-17T01:27:07.699Z,100.00
2023-04-17T01:29:35.598Z,100.00
2023-04-17T01:32:03.064Z,100.00
2023-04-17T01:34:30.523Z,100.00
2023-04-17T01:36:58.075Z,100.00
2023-04-17T01:39:25.728Z,100.00
2023-04-17T01:41:54.568Z,100.00
2023-04-17T01:44:22.132Z,100.00
2023-04-17T01:46:49.610Z,100.00
2023-04-17T01:49:17.329Z,100.00
2023-04-17T01:51:44.815Z,100.00
2023-04-17T01:54:12.309Z,100.00
2023-04-17T01:56:39.781Z,100.00
2023-04-17T01:59:08.610Z,100.00
2023-04-17T02:01:36.930Z,100.00
2023-04-17T02:04:04.724Z,100.00
2023-04-17T02:06:32.580Z,100.00
2023-04-17T02:09:00.209Z,100.00
2023-04-17T02:11:27.669Z,100.00
2023-04-17T02:13:55.153Z,100.00
2023-04-17T02:16:24.172Z,100.00
2023-04-17T02:18:52.529Z,100.00
2023-04-17T02:21:19.982Z,100.00
2023-04-17T02:23:47.508Z,100.00
2023-04-17T02:26:15.052Z,100.00
2023-04-17T02:28:44.762Z,100.00
2023-04-17T02:31:13.275Z,100.00
2023-04-17T02:33:42.149Z,100.00
2023-04-17T02:36:10.312Z,100.00
2023-04-17T02:38:37.814Z,100.00
2023-04-17T02:41:06.203Z,100.00
2023-04-17T02:43:33.661Z,100.00
2023-04-17T02:46:01.411Z,100.00
2023-04-17T02:48:28.931Z,100.00
2023-04-17T02:50:57.801Z,100.00
2023-04-17T02:53:25.356Z,100.00
2023-04-17T02:55:52.832Z,100.00
2023-04-17T02:58:20.302Z,100.00
2023-04-17T03:00:47.882Z,100.00
2023-04-17T03:03:15.663Z,100.00
2023-04-17T03:05:43.485Z,100.00
2023-04-17T03:08:12.277Z,100.00
2023-04-17T03:10:39.720Z,100.00
2023-04-17T03:13:07.176Z,100.00
2023-04-17T03:15:36.247Z,100.00
2023-04-17T03:18:03.746Z,100.00
2023-04-17T03:20:31.245Z,100.00
2023-04-17T03:22:58.688Z,100.00
2023-04-17T03:25:27.595Z,100.00
2023-04-17T03:27:56.367Z,100.00
2023-04-17T03:30:23.909Z,100.00
2023-04-17T03:32:51.412Z,100.00
2023-04-17T03:35:19.007Z,100.00
2023-04-17T03:37:46.633Z,100.00
2023-04-17T03:40:14.315Z,100.00
2023-04-17T03:42:43.150Z,100.00
2023-04-17T03:45:11.515Z,100.00
2023-04-17T03:47:39.027Z,100.00
2023-04-17T03:50:07.716Z,100.00
2023-04-17T03:52:35.181Z,100.00
2023-04-17T03:55:02.706Z,100.00
2023-04-17T03:57:30.170Z,100.00
2023-04-17T03:59:58.946Z,100.00
2023-04-17T04:02:26.554Z,100.00
2023-04-17T04:04:54.258Z,100.00
2023-04-17T04:07:21.828Z,100.00
2023-04-17T04:09:49.302Z,100.00
2023-04-17T04:12:16.744Z,100.00
2023-04-17T04:14:44.204Z,100.00
2023-04-17T04:17:13.011Z,100.00
2023-04-17T04:19:40.565Z,100.00
2023-04-17T04:22:08.008Z,100.00
2023-04-17T04:24:35.527Z,100.00
2023-04-17T04:27:05.228Z,100.00
2023-04-17T04:29:33.087Z,100.00
2023-04-17T04:32:01.075Z,100.00
2023-04-17T04:34:30.186Z,100.00
2023-04-17T04:36:57.728Z,100.00
2023-04-17T04:39:25.269Z,100.00
2023-04-17T04:41:53.312Z,100.00
2023-04-17T04:44:21.268Z,100.00
2023-04-17T04:46:48.811Z,100.00
2023-04-17T04:49:16.288Z,100.00
2023-04-17T04:51:45.344Z,100.00
2023-04-17T04:54:12.822Z,100.00
2023-04-17T04:56:40.407Z,100.00
2023-04-17T04:59:07.876Z,100.00
2023-04-17T05:01:36.024Z,100.00
2023-04-17T05:04:03.807Z,100.00
2023-04-17T05:06:31.420Z,100.00
2023-04-17T05:09:00.754Z,100.00
2023-04-17T05:11:28.253Z,100.00
2023-04-17T05:13:55.704Z,100.00
2023-04-17T05:16:23.209Z,100.00
2023-04-17T05:18:50.655Z,100.00
2023-04-17T05:21:18.129Z,100.00
2023-04-17T05:23:45.609Z,100.00
2023-04-17T05:26:14.386Z,100.00
2023-04-17T05:28:41.868Z,100.00
2023-04-17T05:31:09.412Z,100.00
2023-04-17T05:33:36.923Z,100.00
2023-04-17T05:36:04.717Z,100.00
2023-04-17T05:38:32.517Z,100.00
2023-04-17T05:41:01.639Z,100.00
2023-04-17T05:43:30.444Z,100.00
2023-04-17T05:45:57.939Z,100.00
2023-04-17T05:48:25.451Z,100.00
2023-04-17T05:50:52.976Z,100.00
2023-04-17T05:53:20.660Z,100.00
2023-04-17T05:55:48.113Z,100.00
2023-04-17T06:00:47.511Z,100.00
2023-04-17T06:03:18.142Z,100.00
2023-04-17T06:05:46.976Z,100.00
2023-04-17T06:08:14.654Z,100.00
2023-04-17T06:10:42.251Z,100.00
2023-04-17T06:13:09.807Z,100.00
2023-04-17T06:15:37.247Z,100.00
2023-04-17T06:18:06.382Z,100.00
2023-04-17T06:20:33.887Z,100.00
2023-04-17T06:23:01.651Z,100.00
2023-04-17T06:25:29.168Z,100.00
2023-04-17T06:27:56.618Z,100.00
2023-04-17T06:30:24.142Z,100.00
2023-04-17T06:32:51.679Z,100.00
2023-04-17T06:35:20.677Z,100.00
2023-04-17T06:37:48.207Z,100.00
2023-04-17T06:40:15.693Z,100.00
2023-04-17T06:42:43.215Z,100.00
2023-04-17T06:45:11.499Z,100.00
2023-04-17T06:47:39.057Z,100.00
2023-04-17T06:50:08.096Z,100.00
2023-04-17T06:52:36.907Z,100.00
2023-04-17T06:55:04.631Z,100.00
2023-04-17T06:57:33.880Z,100.00
2023-04-17T07:00:01.371Z,100.00
2023-04-17T07:02:29.037Z,100.00
2023-04-17T07:04:56.806Z,100.00
2023-04-17T07:07:24.461Z,100.00
2023-04-17T07:09:53.279Z,100.00
2023-04-17T07:12:20.805Z,100.00
2023-04-17T07:14:48.274Z,100.00
2023-04-17T07:17:15.945Z,100.00
2023-04-17T07:19:43.407Z,100.00
2023-04-17T07:22:11.026Z,100.00
2023-04-17T07:24:38.465Z,100.00
2023-04-17T07:27:07.600Z,100.00
2023-04-17T07:29:35.381Z,100.00
2023-04-17T07:32:03.528Z,100.00
2023-04-17T07:34:32.780Z,100.00
2023-04-17T07:37:00.386Z,100.00
2023-04-17T07:39:31.465Z,93.24
2023-04-17T07:41:58.951Z,82.73
2023-04-17T07:44:27.747Z,83.23
2023-04-17T07:46:55.826Z,88.67
2023-04-17T07:49:23.403Z,96.06
2023-04-17T07:51:50.890Z,83.96
2023-04-17T07:54:18.345Z,71.14
2023-04-17T07:56:47.064Z,65.99
2023-04-17T07:59:14.606Z,61.51
2023-04-17T08:01:43.483Z,59.19
2023-04-17T08:04:11.329Z,64.56
2023-04-17T08:06:39.017Z,66.52
2023-04-17T08:09:07.095Z,81.57
2023-04-17T08:11:40.144Z,81.37
2023-04-17T08:14:15.419Z,79.41
2023-04-17T08:16:44.350Z,76.08
2023-04-17T08:19:12.045Z,72.47
2023-04-17T08:21:39.721Z,79.00
2023-04-17T08:24:07.859Z,67.35
2023-04-17T08:26:35.364Z,78.43
2023-04-17T08:29:04.636Z,88.11
2023-04-17T08:31:32.286Z,90.14
2023-04-17T08:34:12.974Z,90.79
2023-04-17T08:36:41.635Z,96.83
2023-04-17T08:39:10.018Z,96.92
2023-04-17T08:41:45.182Z,100.00
2023-04-17T08:44:12.804Z,99.36
2023-04-17T08:46:40.800Z,90.02
2023-04-17T08:49:09.713Z,82.05
2023-04-17T08:51:37.167Z,85.73
2023-04-17T08:54:04.821Z,89.11
2023-04-17T08:56:32.292Z,94.35
2023-04-17T08:58:59.753Z,91.37
2023-04-17T09:01:29.763Z,86.74
2023-04-17T09:03:57.988Z,84.81
2023-04-17T09:06:27.510Z,83.19
2023-04-17T09:08:56.735Z,85.00
2023-04-17T09:11:24.295Z,86.26
2023-04-17T09:13:51.985Z,87.97
2023-04-17T09:16:20.586Z,84.42
2023-04-17T09:18:49.407Z,77.67
2023-04-17T09:21:19.513Z,70.57
2023-04-17T09:23:50.986Z,65.32
2023-04-17T09:26:20.892Z,66.42
2023-04-17T09:29:07.579Z,59.34
2023-04-17T09:31:36.196Z,56.84
2023-04-17T09:34:05.228Z,58.02
2023-04-17T09:36:35.129Z,61.90
2023-04-17T09:39:05.327Z,64.34
2023-04-17T09:41:36.297Z,60.42
2023-04-17T09:44:05.511Z,58.58
2023-04-17T09:46:38.891Z,61.00
2023-04-17T09:49:11.298Z,60.88
2023-04-17T09:51:39.542Z,63.29
2023-04-17T09:54:11.602Z,68.20
2023-04-17T09:56:39.891Z,66.64
2023-04-17T09:59:08.594Z,64.94
2023-04-17T10:01:38.108Z,65.12
2023-04-17T10:04:06.731Z,67.10
2023-04-17T10:06:36.010Z,62.92
2023-04-17T10:09:04.287Z,58.69
2023-04-17T10:11:42.494Z,56.19
2023-04-17T10:14:14.781Z,56.96
2023-04-17T10:16:43.757Z,57.06
2023-04-17T10:19:30.271Z,60.00
2023-04-17T10:22:40.935Z,61.14
2023-04-17T10:25:22.508Z,62.47
2023-04-17T10:27:53.545Z,68.53
2023-04-17T10:30:23.433Z,62.88
2023-04-17T10:33:24.794Z,61.69
2023-04-17T10:35:53.667Z,60.41
2023-04-17T10:38:34.685Z,57.54
2023-04-17T10:41:04.781Z,57.52
2023-04-17T10:43:33.924Z,55.20
2023-04-17T10:46:06.481Z,53.98
2023-04-17T10:48:36.014Z,52.02
2023-04-17T10:51:42.343Z,59.42
2023-04-17T10:54:13.533Z,76.36
2023-04-17T10:56:43.020Z,88.98
2023-04-17T10:59:13.570Z,100.00
2023-04-17T11:01:59.486Z,100.00
2023-04-17T11:04:29.661Z,100.00
2023-04-17T11:06:57.331Z,100.00
2023-04-17T11:09:26.565Z,100.00
2023-04-17T11:11:54.186Z,100.00
2023-04-17T11:14:24.340Z,100.00
2023-04-17T11:16:53.106Z,100.00
2023-04-17T11:19:23.003Z,100.00
2023-04-17T11:21:52.272Z,100.00
2023-04-17T11:24:23.874Z,100.00
2023-04-17T11:26:51.589Z,100.00
2023-04-17T11:29:21.072Z,92.87
2023-04-17T11:31:51.825Z,93.06
2023-04-17T11:34:19.876Z,100.00
2023-04-17T11:36:51.046Z,100.00
2023-04-17T11:39:19.006Z,100.00
2023-04-17T11:41:46.848Z,100.00
2023-04-17T11:44:15.258Z,100.00
2023-04-17T11:46:42.783Z,94.10
2023-04-17T11:49:12.633Z,81.00
2023-04-17T11:51:43.044Z,78.22
2023-04-17T11:54:10.747Z,64.55
2023-04-17T11:56:38.364Z,65.20
2023-04-17T11:59:06.401Z,67.27
2023-04-17T12:01:33.996Z,69.20
2023-04-17T12:04:01.606Z,82.31
2023-04-17T12:06:38.374Z,81.73
2023-04-17T12:09:07.100Z,86.42
2023-04-17T12:11:34.805Z,89.54
2023-04-17T12:14:03.748Z,95.51
2023-04-17T12:16:31.466Z,100.00
2023-04-17T12:18:59.065Z,100.00
2023-04-17T12:21:26.653Z,100.00
2023-04-17T12:23:55.469Z,100.00
2023-04-17T12:26:24.941Z,100.00
2023-04-17T12:28:52.434Z,100.00
2023-04-17T12:33:47.527Z,100.00
2023-04-17T12:36:15.054Z,100.00
2023-04-17T12:38:43.249Z,100.00
2023-04-17T12:41:12.078Z,100.00
2023-04-17T12:43:39.536Z,100.00
2023-04-17T12:46:07.094Z,100.00
2023-04-17T12:48:34.941Z,100.00
2023-04-17T12:51:02.441Z,100.00
2023-04-17T12:53:30.351Z,100.00
2023-04-17T12:55:58.433Z,100.00
2023-04-17T12:58:27.300Z,92.65
2023-04-17T13:00:54.844Z,93.36
2023-04-17T13:03:22.493Z,92.37
2023-04-17T13:05:52.706Z,84.73
2023-04-17T13:08:20.306Z,76.83
2023-04-17T13:10:47.787Z,74.16
2023-04-17T13:13:15.253Z,75.12
2023-04-17T13:15:45.914Z,76.26
2023-04-17T13:18:13.432Z,78.65
2023-04-17T13:20:41.121Z,72.67
2023-04-17T13:23:11.703Z,71.79
2023-04-17T13:25:39.230Z,68.47
2023-04-17T13:28:06.795Z,63.48
2023-04-17T13:30:36.939Z,61.12
2023-04-17T13:33:05.945Z,61.87
2023-04-17T13:35:33.484Z,63.35
2023-04-17T13:38:03.036Z,60.82
2023-04-17T13:40:31.049Z,61.33
2023-04-17T13:42:58.528Z,61.17
2023-04-17T13:45:26.011Z,61.40
2023-04-17T13:47:53.766Z,60.94
2023-04-17T13:50:22.727Z,59.56
2023-04-17T13:52:50.270Z,63.94
2023-04-17T13:55:17.924Z,64.25
2023-04-17T13:57:45.398Z,70.77
2023-04-17T14:00:14.297Z,71.95
2023-04-17T14:02:42.648Z,70.50
2023-04-17T14:05:11.177Z,66.36
2023-04-17T14:07:40.460Z,60.04
2023-04-17T14:10:09.934Z,60.51
2023-04-17T14:12:37.469Z,63.84
2023-04-17T14:15:06.468Z,68.20
2023-04-17T14:17:34.359Z,64.60
2023-04-17T14:20:01.925Z,65.17
2023-04-17T14:22:29.426Z,66.23
2023-04-17T14:24:58.261Z,66.70
2023-04-17T14:27:25.875Z,67.83
2023-04-17T14:29:53.349Z,69.51
2023-04-17T14:32:20.866Z,68.49
2023-04-17T14:34:48.409Z,71.88
2023-04-17T14:37:15.978Z,68.79
2023-04-17T14:39:43.454Z,67.30
2023-04-17T14:42:12.238Z,69.46
2023-04-17T14:44:39.737Z,66.80
2023-04-17T14:47:08.098Z,63.47
2023-04-17T14:49:35.717Z,60.97
2023-04-17T14:52:03.202Z,54.68
2023-04-17T14:54:30.871Z,53.29
2023-04-17T14:56:58.625Z,53.71
2023-04-17T14:59:28.443Z,58.97
2023-04-17T15:01:56.123Z,56.27
2023-04-17T15:04:24.014Z,59.11
2023-04-17T15:06:51.628Z,60.42
2023-04-17T15:09:19.176Z,62.57
2023-04-17T15:11:47.423Z,60.99
2023-04-17T15:14:14.950Z,62.32
2023-04-17T15:16:43.765Z,64.08
2023-04-17T15:19:11.531Z,67.43
2023-04-17T15:21:39.148Z,64.59
2023-04-17T15:24:07.414Z,61.52
2023-04-17T15:26:35.474Z,58.88
2023-04-17T15:29:03.689Z,60.66
2023-04-17T15:31:31.162Z,59.63
2023-04-17T15:33:59.959Z,60.76
2023-04-17T15:36:32.132Z,61.33
2023-04-17T15:38:59.635Z,65.26
2023-04-17T15:41:27.256Z,64.76
2023-04-17T15:43:54.740Z,60.04
2023-04-17T15:46:22.351Z,60.90
2023-04-17T15:49:01.148Z,60.51
2023-04-17T15:51:37.283Z,62.66
2023-04-17T15:54:05.754Z,62.90
2023-04-17T15:56:33.312Z,63.19
2023-04-17T15:59:00.888Z,67.67
2023-04-17T16:01:28.630Z,72.80
2023-04-17T16:03:56.328Z,72.56
2023-04-17T16:06:23.991Z,72.90
2023-04-17T16:08:52.860Z,73.16
2023-04-17T16:11:20.544Z,73.47
2023-04-17T16:13:47.997Z,74.83
2023-04-17T16:16:15.910Z,76.88
2023-04-17T16:18:43.408Z,82.32
2023-04-17T16:21:11.986Z,85.34
2023-04-17T16:23:39.476Z,85.77
2023-04-17T16:26:08.466Z,86.56
2023-04-17T16:28:36.187Z,84.91
2023-04-17T16:31:03.690Z,82.60
2023-04-17T16:33:31.201Z,84.16
2023-04-17T16:35:58.681Z,81.96
2023-04-17T16:38:27.555Z,90.17
2023-04-17T16:40:57.026Z,91.66
2023-04-17T16:43:25.872Z,95.51
2023-04-17T16:45:53.330Z,98.55
2023-04-17T16:48:20.881Z,95.18
2023-04-17T16:50:48.593Z,96.49
2023-04-17T16:53:16.070Z,96.35
2023-04-17T16:55:43.625Z,96.13
2023-04-17T16:58:12.108Z,96.70
2023-04-17T17:00:40.905Z,92.58
2023-04-17T17:03:08.558Z,88.85
2023-04-17T17:05:36.959Z,87.14
2023-04-17T17:08:04.437Z,89.09
2023-04-17T17:10:31.866Z,90.76
2023-04-17T17:12:59.331Z,95.33
2023-04-17T17:15:26.815Z,96.53
2023-04-17T17:17:55.762Z,98.24
2023-04-17T17:20:23.308Z,100.00
2023-04-17T17:22:50.890Z,100.00
2023-04-17T17:25:18.573Z,100.00
2023-04-17T17:27:46.089Z,100.00
2023-04-17T17:30:14.527Z,100.00
2023-04-17T17:32:42.110Z,100.00
2023-04-17T17:35:11.239Z,100.00
2023-04-17T17:37:38.708Z,100.00
2023-04-17T17:40:07.527Z,100.00
2023-04-17T17:42:35.180Z,100.00
2023-04-17T17:45:02.817Z,100.00
2023-04-17T17:47:30.665Z,100.00
2023-04-17T17:49:58.396Z,100.00
2023-04-17T17:52:27.371Z,100.00
2023-04-17T17:54:54.854Z,100.00
2023-04-17T17:57:22.343Z,100.00
2023-04-17T17:59:49.901Z,100.00
2023-04-17T18:02:17.551Z,100.00
2023-04-17T18:04:49.026Z,100.00
2023-04-17T18:07:16.640Z,100.00
2023-04-17T18:09:46.375Z,100.00
2023-04-17T18:12:14.855Z,100.00
2023-04-17T18:14:42.321Z,100.00
2023-04-17T18:17:09.904Z,100.00
2023-04-17T18:19:40.731Z,100.00
2023-04-17T18:22:08.421Z,100.00
2023-04-17T18:24:35.967Z,100.00
2023-04-17T18:27:04.940Z,100.00
2023-04-17T18:29:33.834Z,100.00
2023-04-17T18:32:01.347Z,100.00
2023-04-17T18:34:28.857Z,100.00
2023-04-17T18:36:58.470Z,100.00
2023-04-17T18:39:26.067Z,100.00
2023-04-17T18:41:53.560Z,100.00
2023-04-17T18:44:22.773Z,100.00
2023-04-17T18:46:50.441Z,100.00
2023-04-17T18:49:18.126Z,100.00
2023-04-17T18:51:47.841Z,100.00
2023-04-17T18:54:15.939Z,100.00
2023-04-17T18:56:43.634Z,100.00
2023-04-17T18:59:11.619Z,100.00
2023-04-17T19:01:42.613Z,100.00
2023-04-17T19:04:10.491Z,100.00
2023-04-17T19:06:38.221Z,100.00
2023-04-17T19:09:05.729Z,100.00
2023-04-17T19:11:33.513Z,100.00
2023-04-17T19:14:01.015Z,100.00
2023-04-17T19:16:28.593Z,100.00
2023-04-17T19:18:57.515Z,100.00
2023-04-17T19:21:25.013Z,100.00
2023-04-17T19:23:52.503Z,100.00
2023-04-17T19:26:19.993Z,100.00
2023-04-17T19:28:47.481Z,100.00
2023-04-17T19:31:14.992Z,100.00
2023-04-17T19:33:42.507Z,100.00
2023-04-17T19:36:11.352Z,100.00
2023-04-17T19:38:38.840Z,100.00
2023-04-17T19:41:17.710Z,100.00
2023-04-17T19:43:46.012Z,100.00
2023-04-17T19:46:14.570Z,100.00
2023-04-17T19:48:43.582Z,100.00
2023-04-17T19:51:13.317Z,100.00
2023-04-17T19:53:42.645Z,100.00
2023-04-17T19:56:10.857Z,100.00
2023-04-17T19:58:39.303Z,100.00
2023-04-17T20:01:06.807Z,100.00
2023-04-17T20:03:35.415Z,100.00
2023-04-17T20:06:03.539Z,100.00
2023-04-17T20:08:32.393Z,100.00
2023-04-17T20:10:59.932Z,100.00
2023-04-17T20:13:27.954Z,100.00
2023-04-17T20:15:55.521Z,100.00
2023-04-17T20:18:23.041Z,100.00
2023-04-17T20:20:50.574Z,100.00
2023-04-17T20:23:18.039Z,100.00
2023-04-17T20:25:46.885Z,100.00
2023-04-17T20:28:14.463Z,100.00
2023-04-17T20:30:41.917Z,100.00
2023-04-17T20:33:09.485Z,100.00
2023-04-17T20:35:37.028Z,100.00
2023-04-17T20:38:04.620Z,100.00
2023-04-17T20:40:32.127Z,100.00
2023-04-17T20:43:01.059Z,100.00
2023-04-17T20:45:28.837Z,100.00
2023-04-17T20:47:57.220Z,100.00
2023-04-17T20:50:25.420Z,100.00
2023-04-17T20:52:52.915Z,100.00
2023-04-17T20:55:20.818Z,100.00
2023-04-17T20:57:48.680Z,100.00
2023-04-17T21:00:17.813Z,100.00
2023-04-17T21:02:45.892Z,100.00
2023-04-17T21:05:13.413Z,100.00
2023-04-17T21:07:40.884Z,100.00
2023-04-17T21:10:09.330Z,100.00
2023-04-17T21:12:36.782Z,100.00
2023-04-17T21:15:04.590Z,100.00
2023-04-17T21:17:33.424Z,100.00
2023-04-17T21:20:00.890Z,100.00
2023-04-17T21:22:28.354Z,100.00
2023-04-17T21:24:55.810Z,100.00
2023-04-17T21:27:23.750Z,100.00
2023-04-17T21:29:51.281Z,100.00
2023-04-17T21:32:18.796Z,100.00
2023-04-17T21:34:47.632Z,100.00
2023-04-17T21:37:15.125Z,100.00
2023-04-17T21:39:42.598Z,100.00
2023-04-17T21:42:10.695Z,100.00
2023-04-17T21:44:38.132Z,100.00
2023-04-17T21:47:05.666Z,100.00
2023-04-17T21:49:33.147Z,100.00
2023-04-17T21:52:02.042Z,100.00
2023-04-17T21:54:29.568Z,100.00
2023-04-17T21:56:57.017Z,100.00
2023-04-17T21:59:24.882Z,100.00
2023-04-17T22:01:52.375Z,100.00
2023-04-17T22:04:19.944Z,100.00
2023-04-17T22:06:47.499Z,100.00
2023-04-17T22:09:16.461Z,100.00
2023-04-17T22:11:43.952Z,100.00
2023-04-17T22:14:11.802Z,100.00
2023-04-17T22:16:39.437Z,100.00
2023-04-17T22:19:07.141Z,100.00
2023-04-17T22:21:34.617Z,100.00
2023-04-17T22:24:02.143Z,100.00
2023-04-17T22:26:31.538Z,100.00
2023-04-17T22:28:58.981Z,100.00
2023-04-17T22:31:26.491Z,100.00
2023-04-17T22:33:53.966Z,100.00
2023-04-17T22:36:21.427Z,100.00
2023-04-17T22:38:48.897Z,100.00
2023-04-17T22:41:16.338Z,100.00
2023-04-17T22:43:48.653Z,100.00
2023-04-17T22:46:16.606Z,100.00
2023-04-17T22:48:45.044Z,100.00
2023-04-17T22:51:13.525Z,100.00
2023-04-17T22:53:41.046Z,100.00
2023-04-17T22:56:12.784Z,100.00
2023-04-17T22:58:40.320Z,100.00
2023-04-17T23:01:09.188Z,100.00
2023-04-17T23:03:36.725Z,100.00
2023-04-17T23:06:04.916Z,100.00
2023-04-17T23:08:32.387Z,100.00
2023-04-17T23:11:00.945Z,100.00
2023-04-17T23:13:28.890Z,100.00
2023-04-17T23:15:56.433Z,100.00
2023-04-17T23:18:25.410Z,100.00
2023-04-17T23:20:52.896Z,100.00
2023-04-17T23:23:20.603Z,100.00
2023-04-17T23:25:48.193Z,100.00
2023-04-17T23:28:15.780Z,100.00
2023-04-17T23:30:43.281Z,100.00
2023-04-17T23:33:10.760Z,100.00
2023-04-17T23:35:39.559Z,100.00
2023-04-17T23:38:07.081Z,100.00
2023-04-17T23:40:35.721Z,100.00
2023-04-17T23:43:03.200Z,100.00
2023-04-17T23:45:30.683Z,100.00
2023-04-17T23:47:58.194Z,100.00
2023-04-17T23:50:25.973Z,100.00
2023-04-17T23:52:55.130Z,100.00
2023-04-17T23:55:25.708Z,100.00
2023-04-17T23:57:53.235Z,100.00
